Time;durP1;ratioP1;P1;durP2;ratioP2;P2;SDS_P1;SDS_P2;PMS_P1;PMS_P2;Temp;Humidity;BMP_temperature;BMP_pressure;BME280_temperature;BME280_humidity;BME280_pressure;Samples;Min_cycle;Max_cycle;Signal;HPM_P1;HPM_P2
2022/04/26 03:36:16;;;;;;;;;;;;;;;12.84;67.89;100504.50;4946976;28;19976;-86
2022/04/26 03:38:43;;;;;;;;;;;;;;;12.97;67.60;100505.75;4954471;28;19922;-86
2022/04/26 03:41:08;;;;;;;;;;;;;;;13.04;67.14;100506.72;4951679;28;20420;-86
2022/04/26 03:43:34;;;;;;;;;;;;;;;13.17;66.70;100511.50;4956323;28;19930;-86
2022/04/26 03:45:59;;;;;;;;;;;;;;;13.28;66.14;100511.94;4949462;28;19918;-86
2022/04/26 03:48:25;;;;;;;;;;;;;;;13.27;66.16;100507.59;4951859;28;19922;-87
2022/04/26 03:50:52;;;;;;;;;;;;;;;13.24;66.00;100518.69;4982234;28;19929;-86
2022/04/26 03:53:19;;;;;;;;;;;;;;;13.43;65.21;100516.53;4951193;28;19972;-86
2022/04/26 03:55:45;;;;;;;;;;;;;;;13.66;64.66;100517.31;4961686;28;19976;-85
2022/04/26 03:58:10;;;;;;;;;;;;;;;13.84;64.14;100530.50;4951571;28;19931;-87
2022/04/26 04:00:36;;;;;;;;;;;;;;;14.11;63.01;100525.44;4950252;28;19922;-87
2022/04/26 04:03:03;;;;;;;;;;;;;;;14.07;62.30;100526.84;4949942;28;20386;-86
2022/04/26 04:05:29;;;;;;;;;;;;;;;14.35;61.96;100516.19;4950814;28;19918;-88
2022/04/26 04:07:55;;;;;;;;;;;;;;;14.59;61.14;100509.66;4964246;28;19931;-88
2022/04/26 04:10:22;;;;;;;;;;;;;;;14.70;60.52;100509.16;4944699;28;20123;-87
2022/04/26 04:12:47;;;;;;;;;;;;;;;14.77;60.26;100514.63;4949261;28;20378;-85
2022/04/26 04:15:14;;;;;;;;;;;;;;;14.84;59.69;100526.34;4951346;28;19922;-88
2022/04/26 04:17:39;;;;;;;;;;;;;;;14.91;59.67;100521.88;4948263;28;20369;-86
2022/04/26 04:20:05;;;;;;;;;;;;;;;14.83;59.17;100530.09;4950638;28;19962;-86
2022/04/26 04:22:30;;;;;;;;;;;;;;;14.86;59.15;100521.59;4949131;28;20036;-85
2022/04/26 04:24:55;;;;;;;;;;;;;;;14.91;58.90;100532.69;4954718;28;19918;-89
2022/04/26 04:27:20;;;;;;;;;;;;;;;15.18;58.59;100528.38;4950852;28;19910;-87
2022/04/26 04:29:51;;;;;;;;;;;;;;;15.10;59.19;100533.94;4955055;28;19922;-87
2022/04/26 04:32:17;;;;;;;;;;;;;;;15.40;58.21;100540.03;4949139;28;20092;-90
2022/04/26 04:34:46;;;;;;;;;;;;;;;15.20;59.30;100549.84;4952881;28;20418;-90
2022/04/26 04:37:15;;;;;;;;;;;;;;;15.29;59.27;100556.81;4947197;28;20370;-91
2022/04/26 04:39:41;;;;;;;;;;;;;;;15.41;58.64;100557.94;4956324;28;19930;-87
2022/04/26 04:42:06;;;;;;;;;;;;;;;15.69;58.26;100553.59;4948277;28;19930;-88
2022/04/26 04:44:34;;;;;;;;;;;;;;;15.44;58.39;100558.59;4953377;28;19918;-88
2022/04/26 04:47:01;;;;;;;;;;;;;;;15.56;58.09;100559.72;4956865;28;19929;-91
2022/04/26 04:49:27;;;;;;;;;;;;;;;15.34;58.58;100559.75;4950146;28;19945;-89
2022/04/26 04:51:55;;;;;;;;;;;;;;;15.26;58.66;100561.75;4958347;28;20355;-88
2022/04/26 04:54:21;;;;;;;;;;;;;;;15.08;59.71;100564.94;4957819;28;19919;-88
2022/04/26 04:56:46;;;;;;;;;;;;;;;15.06;59.62;100567.00;5016637;28;19985;-87
2022/04/26 04:59:12;;;;;;;;;;;;;;;14.88;59.87;100570.94;4968081;28;19945;-89
2022/04/26 05:01:38;;;;;;;;;;;;;;;15.09;59.26;100572.00;4956783;28;19937;-85
2022/04/26 05:04:05;;;;;;;;;;;;;;;15.05;59.89;100581.53;4977680;28;20025;-86
2022/04/26 05:06:30;;;;;;;;;;;;;;;15.34;59.15;100586.84;4955191;28;19918;-85
2022/04/26 05:08:57;;;;;;;;;;;;;;;15.54;58.26;100594.31;4957474;28;19923;-85
2022/04/26 05:11:24;;;;;;;;;;;;;;;15.60;57.58;100585.41;4967688;28;19976;-86
2022/04/26 05:13:50;;;;;;;;;;;;;;;15.71;56.94;100582.19;4959894;28;19975;-82
2022/04/26 05:16:16;;;;;;;;;;;;;;;15.81;56.51;100582.69;4967636;28;19934;-89
2022/04/26 05:18:42;;;;;;;;;;;;;;;16.01;55.66;100587.41;4953895;28;19922;-88
2022/04/26 05:21:08;;;;;;;;;;;;;;;16.10;55.16;100599.78;4998926;28;19928;-86
2022/04/26 05:26:18;;;;;;;;;;;;;;;16.27;55.10;100607.59;4954002;28;19938;-88
2022/04/26 05:28:45;;;;;;;;;;;;;;;16.66;54.23;100604.25;4952369;28;20019;-88
2022/04/26 05:31:14;;;;;;;;;;;;;;;16.74;53.29;100616.81;4951821;28;19945;-92
2022/04/26 05:33:39;;;;;;;;;;;;;;;16.45;54.29;100622.31;4950715;28;19954;-91
2022/04/26 05:36:09;;;;;;;;;;;;;;;16.46;54.37;100615.03;4985924;28;19914;-89
2022/04/26 05:38:34;;;;;;;;;;;;;;;16.70;54.24;100612.84;4972551;28;19930;-87
2022/04/26 05:41:04;;;;;;;;;;;;;;;16.74;54.30;100611.38;4960364;28;19926;-91
2022/04/26 05:43:33;;;;;;;;;;;;;;;16.53;55.19;100618.63;4962422;28;20230;-92
2022/04/26 05:45:59;;;;;;;;;;;;;;;16.50;55.66;100612.72;4992036;28;19960;-90
2022/04/26 05:48:25;;;;;;;;;;;;;;;16.46;54.52;100596.88;4956431;28;20017;-88
2022/04/26 05:50:54;;;;;;;;;;;;;;;16.71;54.38;100598.22;4964763;28;20005;-90
2022/04/26 05:53:21;;;;;;;;;;;;;;;16.47;53.32;100578.69;4953637;28;19914;-88
2022/04/26 05:55:46;;;;;;;;;;;;;;;16.74;53.95;100595.09;4951409;28;19922;-91
2022/04/26 05:58:14;;;;;;;;;;;;;;;16.51;52.69;100593.53;4955573;28;20389;-92
2022/04/26 06:00:46;;;;;;;;;;;;;;;16.84;53.29;100588.28;4972070;28;19918;-93
2022/04/26 06:03:11;;;;;;;;;;;;;;;16.36;55.63;100628.94;4957779;28;19914;-89
2022/04/26 06:05:39;;;;;;;;;;;;;;;15.96;57.00;100625.13;4964127;28;19952;-87
2022/04/26 06:08:05;;;;;;;;;;;;;;;15.97;56.64;100649.34;4971673;28;19941;-89
2022/04/26 06:10:36;;;;;;;;;;;;;;;15.71;56.20;100663.50;4940060;28;19918;-93
2022/04/26 06:13:03;;;;;;;;;;;;;;;15.62;56.01;100680.91;4954251;28;19992;-90
2022/04/26 06:15:29;;;;;;;;;;;;;;;15.46;55.73;100681.16;4954285;28;19922;-91
2022/04/26 06:17:54;;;;;;;;;;;;;;;15.35;56.62;100702.28;4936620;28;19918;-89
2022/04/26 06:20:24;;;;;;;;;;;;;;;15.17;56.64;100709.97;4956368;28;19925;-90
2022/04/26 06:22:50;;;;;;;;;;;;;;;15.19;56.93;100716.03;4958062;28;19914;-90
2022/04/26 06:25:15;;;;;;;;;;;;;;;15.13;57.54;100706.00;4963993;28;20017;-90
2022/04/26 06:27:44;;;;;;;;;;;;;;;15.22;57.74;100702.16;4966655;28;19918;-88
2022/04/26 06:30:09;;;;;;;;;;;;;;;15.19;58.16;100691.69;4981407;28;19934;-87
2022/04/26 06:32:42;;;;;;;;;;;;;;;14.99;58.63;100673.34;5036048;28;20291;-88
2022/04/26 06:35:07;;;;;;;;;;;;;;;15.05;58.56;100669.00;4979088;28;19930;-88
2022/04/26 06:37:33;;;;;;;;;;;;;;;15.09;60.00;100655.94;4977103;28;19992;-90
2022/04/26 06:40:01;;;;;;;;;;;;;;;15.17;61.26;100661.22;4960665;28;19962;-88
2022/04/26 06:42:26;;;;;;;;;;;;;;;15.16;61.98;100641.44;4951331;28;19918;-88
2022/04/26 06:44:55;;;;;;;;;;;;;;;14.88;62.37;100644.03;4985403;28;19985;-88
2022/04/26 06:47:30;;;;;;;;;;;;;;;14.93;64.96;100665.94;4961669;28;19937;-89
2022/04/26 06:50:00;;;;;;;;;;;;;;;14.92;67.15;100674.28;4957773;28;19919;-88
2022/04/26 06:52:28;;;;;;;;;;;;;;;15.74;62.92;100665.81;5018681;28;19913;-89
2022/04/26 06:54:54;;;;;;;;;;;;;;;15.92;63.81;100681.63;4962844;28;19978;-95
2022/04/26 06:57:32;;;;;;;;;;;;;;;16.32;62.49;100694.63;4954222;28;19929;-96
2022/04/26 06:59:57;;;;;;;;;;;;;;;16.18;61.06;100700.00;4935935;28;20288;-89
2022/04/26 07:02:24;;;;;;;;;;;;;;;16.40;59.63;100700.75;4981797;28;19933;-91
2022/04/26 07:04:50;;;;;;;;;;;;;;;16.74;57.88;100700.97;4954818;28;19926;-90
2022/04/26 07:07:15;;;;;;;;;;;;;;;17.44;55.17;100701.69;4975299;28;19925;-89
2022/04/26 07:09:40;;;;;;;;;;;;;;;18.45;51.69;100692.56;4948901;28;19929;-91
2022/04/26 07:12:08;;;;;;;;;;;;;;;18.74;51.17;100681.19;4950479;28;19998;-91
2022/04/26 07:14:34;;;;;;;;;;;;;;;18.81;52.31;100677.66;4959589;28;20382;-91
2022/04/26 07:17:12;;;;;;;;;;;;;;;19.71;49.87;100677.63;4952931;28;19930;-95
2022/04/26 07:22:58;;;;;;;;;;;;;;;20.63;47.88;100672.44;5016024;28;19949;-92
2022/04/26 07:25:26;;;;;;;;;;;;;;;20.70;45.45;100658.66;4987317;28;19926;-90
2022/04/26 07:27:54;;;;;;;;;;;;;;;20.61;44.15;100660.88;5002788;28;19926;-91
2022/04/26 07:30:20;;;;;;;;;;;;;;;20.50;45.57;100654.25;4983632;28;19914;-92
2022/04/26 07:35:39;;;;;;;;;;;;;;;;;;;;;
2022/04/26 07:38:06;;;;;;;;;;;;;;;20.85;43.96;100640.00;4992956;28;19922;-93
2022/04/26 07:40:36;;;;;;;;;;;;;;;20.70;41.54;100637.69;5007882;28;19944;-92
2022/04/26 07:43:01;;;;;;;;;;;;;;;21.04;42.05;100624.41;4967538;28;19926;-90
2022/04/26 07:45:32;;;;;;;;;;;;;;;21.11;41.77;100624.31;5009965;28;20287;-89
2022/04/26 07:48:01;;;;;;;;;;;;;;;21.20;39.35;100621.03;5109422;23;19928;-89
2022/04/26 07:50:28;;;;;;;;;;;;;;;21.37;38.59;100603.97;4997589;28;19925;-86
2022/04/26 07:53:00;;;;;;;;;;;;;;;21.56;38.96;100632.09;4989721;28;19921;-88
2022/04/26 07:55:28;;;;;;;;;;;;;;;21.35;39.90;100649.84;4991187;28;19914;-88
2022/04/26 07:57:59;;;;;;;;;;;;;;;21.37;39.95;100672.31;4991175;28;19936;-88
2022/04/26 08:00:25;;;;;;;;;;;;;;;21.84;39.31;100684.25;4981309;28;19929;-88
2022/04/26 08:02:50;;;;;;;;;;;;;;;21.56;39.73;100695.00;4990233;28;20036;-87
2022/04/26 08:05:16;;;;;;;;;;;;;;;22.09;38.75;100695.03;4991525;28;19997;-88
2022/04/26 08:07:42;;;;;;;;;;;;;;;22.58;37.06;100694.81;4990618;28;20420;-88
2022/04/26 08:10:11;;;;;;;;;;;;;;;22.65;37.08;100702.91;4989824;28;20008;-87
2022/04/26 08:12:40;;;;;;;;;;;;;;;23.22;36.73;100697.56;5006193;28;19964;-88
2022/04/26 08:15:05;;;;;;;;;;;;;;;23.92;35.68;100696.41;4991557;28;19961;-89
2022/04/26 08:17:31;;;;;;;;;;;;;;;25.27;34.45;100698.09;4989972;28;19956;-88
2022/04/26 08:19:56;;;;;;;;;;;;;;;25.48;32.68;100690.91;4980304;28;19918;-88
2022/04/26 08:22:22;;;;;;;;;;;;;;;27.25;30.91;100699.06;4990557;28;20024;-90
2022/04/26 08:27:34;;;;;;;;;;;;;;;29.58;26.78;100684.34;4991525;28;19921;-89
2022/04/26 08:30:02;;;;;;;;;;;;;;;30.03;25.91;100690.66;4993742;28;20027;-87
2022/04/26 08:32:34;;;;;;;;;;;;;;;30.38;25.39;100691.47;4999070;28;19941;-87
2022/04/26 08:34:59;;;;;;;;;;;;;;;29.98;26.78;100687.94;4986038;28;19914;-88
2022/04/26 08:37:26;;;;;;;;;;;;;;;30.25;25.96;100681.03;4997838;28;19972;-91
2022/04/26 08:39:55;;;;;;;;;;;;;;;30.75;25.15;100684.41;5006806;28;19953;-89
2022/04/26 08:42:39;;;;;;;;;;;;;;;32.20;23.16;100678.47;4998749;28;19914;-90
2022/04/26 08:45:05;;;;;;;;;;;;;;;32.82;22.72;100673.38;4963806;28;20005;-91
2022/04/26 08:52:58;;;;;;;;;;;;;;;32.29;21.88;100683.03;4925485;28;19972;-88
2022/04/26 08:55:27;;;;;;;;;;;;;;;32.24;22.39;100682.28;4968176;28;19923;-87
2022/04/26 08:57:52;;;;;;;;;;;;;;;30.77;23.41;100681.34;4985988;28;19971;-90
2022/04/26 09:00:21;;;;;;;;;;;;;;;32.69;21.11;100691.75;4973319;28;19923;-89
2022/04/26 09:02:58;;;;;;;;;;;;;;;32.48;21.49;100690.47;4921248;28;19913;-91
2022/04/26 09:05:26;;;;;;;;;;;;;;;31.67;21.90;100683.19;4973507;28;20264;-88
2022/04/26 09:07:52;;;;;;;;;;;;;;;30.62;22.69;100696.22;4924608;28;19916;-90
2022/04/26 09:10:18;;;;;;;;;;;;;;;28.85;24.96;100695.22;4990051;28;19924;-90
2022/04/26 09:13:04;;;;;;;;;;;;;;;29.51;24.75;100700.44;4991311;28;19927;-88
2022/04/26 09:15:33;;;;;;;;;;;;;;;31.02;22.68;100710.75;4961836;28;20007;-87
2022/04/26 09:18:15;;;;;;;;;;;;;;;31.37;22.41;100705.84;4978549;28;20430;-89
2022/04/26 09:20:43;;;;;;;;;;;;;;;30.84;22.98;100698.50;4994649;28;20435;-88
2022/04/26 09:23:21;;;;;;;;;;;;;;;29.79;24.20;100698.91;4993364;28;19923;-88
2022/04/26 09:25:47;;;;;;;;;;;;;;;29.20;25.22;100703.41;4995817;28;19917;-88
2022/04/26 09:28:22;;;;;;;;;;;;;;;27.78;26.93;100721.81;4965706;28;19925;-88
2022/04/26 09:30:48;;;;;;;;;;;;;;;26.47;28.95;100716.28;4952596;28;19945;-87
2022/04/26 09:33:47;;;;;;;;;;;;;;;25.36;30.70;100707.56;4925765;28;19981;-88
2022/04/26 09:36:12;;;;;;;;;;;;;;;25.97;30.19;100704.63;4982099;28;20031;-88
2022/04/26 09:38:39;;;;;;;;;;;;;;;25.30;30.90;100708.59;4981305;28;20380;-88
2022/04/26 09:41:05;;;;;;;;;;;;;;;24.87;31.78;100718.50;4947561;28;19927;-88
2022/04/26 09:43:30;;;;;;;;;;;;;;;24.05;33.17;100728.22;4974719;28;19934;-87
2022/04/26 09:45:59;;;;;;;;;;;;;;;24.31;32.96;100712.16;4979391;28;19911;-86
2022/04/26 09:48:25;;;;;;;;;;;;;;;25.45;31.39;100689.50;4959063;28;19955;-89
2022/04/26 09:50:51;;;;;;;;;;;;;;;25.55;31.41;100698.97;5029089;28;19914;-88
2022/04/26 09:53:16;;;;;;;;;;;;;;;24.80;32.15;100709.59;4966957;28;19934;-87
2022/04/26 09:55:42;;;;;;;;;;;;;;;24.32;32.73;100719.31;4978429;28;19919;-91
2022/04/26 09:58:20;;;;;;;;;;;;;;;24.39;32.76;100719.97;5020023;28;19919;-87
2022/04/26 10:00:48;;;;;;;;;;;;;;;24.48;32.68;100715.72;4995637;28;20006;-87
2022/04/26 10:03:20;;;;;;;;;;;;;;;24.38;32.11;100699.06;4976591;28;19967;-89
2022/04/26 10:06:08;;;;;;;;;;;;;;;24.23;31.91;100689.53;4957878;28;19931;-94
2022/04/26 10:08:38;;;;;;;;;;;;;;;24.72;30.99;100690.78;4969069;28;19941;-93
2022/04/26 10:11:26;;;;;;;;;;;;;;;23.80;32.52;100707.47;4949819;28;19931;-94
2022/04/26 10:13:52;;;;;;;;;;;;;;;23.25;33.51;100721.78;4987146;28;19923;-93
2022/04/26 10:16:22;;;;;;;;;;;;;;;23.22;34.31;100714.03;4988127;28;20446;-95
2022/04/26 10:18:50;;;;;;;;;;;;;;;22.99;35.09;100714.09;5007370;28;20346;-91
2022/04/26 10:21:24;;;;;;;;;;;;;;;22.85;35.72;100717.09;4937683;28;19969;-92
2022/04/26 10:23:50;;;;;;;;;;;;;;;22.81;35.72;100718.63;4972225;22;21231;-93
2022/04/26 10:28:52;;;;;;;;;;;;;;;22.73;36.26;100714.34;5063920;28;19936;-93
2022/04/26 10:31:18;;;;;;;;;;;;;;;22.82;36.31;100719.47;5035707;28;19924;-94
2022/04/26 10:34:31;;;;;;;;;;;;;;;23.06;35.89;100712.03;5078654;22;19936;-95
2022/04/26 10:37:02;;;;;;;;;;;;;;;22.94;36.65;100718.38;5060320;28;20365;-94
2022/04/26 10:39:34;;;;;;;;;;;;;;;24.21;34.50;100721.91;5072752;22;19927;-92
2022/04/26 10:42:00;;;;;;;;;;;;;;;25.75;31.53;100710.16;5011817;28;19921;-93
2022/04/26 10:44:37;;;;;;;;;;;;;;;25.24;31.93;100718.72;4991942;28;19961;-92
2022/04/26 10:47:02;;;;;;;;;;;;;;;26.91;29.67;100716.00;4996243;28;20362;-89
2022/04/26 10:49:40;;;;;;;;;;;;;;;27.57;28.33;100715.44;4990807;28;19918;-91
2022/04/26 10:52:10;;;;;;;;;;;;;;;27.72;27.47;100709.94;5008660;28;20345;-89
2022/04/26 10:54:45;;;;;;;;;;;;;;;29.06;25.93;100721.72;5008928;28;19940;-89
2022/04/26 10:57:12;;;;;;;;;;;;;;;29.16;26.13;100723.63;5007624;28;19921;-89
2022/04/26 11:00:03;;;;;;;;;;;;;;;28.30;26.91;100726.28;4990004;28;20310;-88
2022/04/26 11:02:31;;;;;;;;;;;;;;;28.04;27.22;100728.22;4999644;28;19956;-89
2022/04/26 11:05:00;;;;;;;;;;;;;;;26.55;29.11;100724.09;4987200;28;19972;-89
2022/04/26 11:07:27;;;;;;;;;;;;;;;26.99;28.82;100723.75;5010970;28;20003;-93
2022/04/26 11:09:54;;;;;;;;;;;;;;;26.81;29.16;100722.31;4990227;28;19925;-93
2022/04/26 11:12:20;;;;;;;;;;;;;;;27.58;27.61;100719.84;5009406;28;19932;-88
2022/04/26 11:14:47;;;;;;;;;;;;;;;26.80;28.59;100725.34;5002631;28;19956;-90
2022/04/26 11:17:12;;;;;;;;;;;;;;;27.27;27.73;100714.25;5004737;28;19992;-90
2022/04/26 11:19:38;;;;;;;;;;;;;;;26.50;28.86;100722.09;5004456;28;19964;-88
2022/04/26 11:22:04;;;;;;;;;;;;;;;26.01;29.56;100718.69;4987100;28;19938;-88
2022/04/26 11:29:59;;;;;;;;;;;;;;;24.12;33.18;100717.91;5006884;28;20051;-89
2022/04/26 11:32:30;;;;;;;;;;;;;;;23.44;34.48;100721.59;5009689;28;19979;-89
2022/04/26 11:34:57;;;;;;;;;;;;;;;22.01;37.42;100724.63;5004946;28;19929;-90
2022/04/26 11:37:22;;;;;;;;;;;;;;;22.55;36.60;100717.22;5004351;28;21467;-90
2022/04/26 11:39:50;;;;;;;;;;;;;;;22.11;37.41;100701.09;4974647;28;19933;-89
2022/04/26 11:42:16;;;;;;;;;;;;;;;22.34;37.31;100703.06;5022527;28;22333;-88
2022/04/26 11:44:56;;;;;;;;;;;;;;;22.43;37.22;100703.53;5005495;28;19914;-88
2022/04/26 11:47:35;;;;;;;;;;;;;;;21.98;38.00;100706.78;5009486;28;20433;-88
2022/04/26 11:50:27;;;;;;;;;;;;;;;21.28;39.69;100697.28;5009530;28;19919;-92
2022/04/26 11:52:54;;;;;;;;;;;;;;;21.52;39.15;100708.34;5022364;28;19920;-87
2022/04/26 11:55:24;;;;;;;;;;;;;;;20.62;40.89;100714.44;5016786;28;19921;-91
2022/04/26 11:57:51;;;;;;;;;;;;;;;20.43;41.94;100714.38;5030716;28;19932;-90
2022/04/26 12:00:20;;;;;;;;;;;;;;;20.41;42.08;100713.75;5020167;28;20194;-90
2022/04/26 12:02:47;;;;;;;;;;;;;;;20.59;41.71;100699.34;5034828;28;19936;-91
2022/04/26 12:05:14;;;;;;;;;;;;;;;21.41;40.25;100684.50;5031591;28;19942;-92
2022/04/26 12:07:48;;;;;;;;;;;;;;;22.10;39.26;100685.75;5022983;28;19912;-91
2022/04/26 12:10:29;;;;;;;;;;;;;;;22.12;42.26;100677.28;5010858;28;19998;-89
2022/04/26 12:13:21;;;;;;;;;;;;;;;22.05;40.63;100685.59;5029406;28;20289;-90
2022/04/26 12:15:48;;;;;;;;;;;;;;;21.92;40.59;100689.41;5022002;28;19932;-91
2022/04/26 12:18:15;;;;;;;;;;;;;;;21.67;39.24;100683.28;4990939;28;19917;-91
2022/04/26 12:21:07;;;;;;;;;;;;;;;21.97;38.57;100679.66;5008944;28;19913;-92
2022/04/26 12:23:32;;;;;;;;;;;;;;;21.97;38.40;100683.22;5020948;28;19917;-90
2022/04/26 12:26:02;;;;;;;;;;;;;;;22.20;38.01;100676.13;5025312;28;20281;-88
2022/04/26 12:28:28;;;;;;;;;;;;;;;22.18;37.17;100681.81;5010536;28;20055;-90
2022/04/26 12:30:55;;;;;;;;;;;;;;;22.30;36.26;100682.69;5012869;28;19999;-89
2022/04/26 12:33:35;;;;;;;;;;;;;;;22.43;36.44;100683.50;5025987;28;19921;-92
2022/04/26 12:36:05;;;;;;;;;;;;;;;22.12;35.50;100680.03;5012843;28;20043;-91
2022/04/26 12:38:31;;;;;;;;;;;;;;;21.91;35.06;100684.16;5003684;28;19933;-88
2022/04/26 12:41:04;;;;;;;;;;;;;;;21.99;35.54;100678.34;4988958;28;19919;-90
2022/04/26 12:43:30;;;;;;;;;;;;;;;22.06;35.63;100676.34;4904885;28;19931;-92
2022/04/26 12:46:03;;;;;;;;;;;;;;;21.70;35.76;100678.19;4967870;28;19923;-92
2022/04/26 12:51:25;;;;;;;;;;;;;;;21.05;37.98;100669.81;4911109;28;19945;-85
2022/04/26 12:53:54;;;;;;;;;;;;;;;21.03;37.93;100672.78;4938827;28;19977;-90
2022/04/26 12:56:22;;;;;;;;;;;;;;;20.68;37.50;100663.56;4985958;28;19978;-92
2022/04/26 12:58:48;;;;;;;;;;;;;;;20.86;37.34;100664.38;4970754;28;19978;-95
2022/04/26 13:01:14;;;;;;;;;;;;;;;21.11;35.89;100668.06;4892797;28;19915;-91
2022/04/26 13:03:42;;;;;;;;;;;;;;;21.15;36.30;100663.81;4913056;29;19957;-92
2022/04/26 13:06:12;;;;;;;;;;;;;;;21.14;36.93;100657.50;4984911;28;19957;-94
2022/04/26 13:08:44;;;;;;;;;;;;;;;20.53;37.09;100674.81;4965114;28;19916;-88
2022/04/26 13:11:18;;;;;;;;;;;;;;;20.68;37.22;100658.91;4984690;28;19915;-91
2022/04/26 13:14:17;;;;;;;;;;;;;;;20.73;36.27;100675.44;4971469;28;19919;-94
2022/04/26 13:16:42;;;;;;;;;;;;;;;20.44;36.86;100664.19;4995139;28;20318;-92
2022/04/26 13:19:19;;;;;;;;;;;;;;;20.59;35.96;100660.28;4973373;28;19916;-93
2022/04/26 13:21:51;;;;;;;;;;;;;;;20.35;37.18;100660.06;4920752;28;19950;-92
2022/04/26 13:24:38;;;;;;;;;;;;;;;20.18;37.45;100668.03;5003441;28;20012;-94
2022/04/26 13:27:36;;;;;;;;;;;;;;;20.30;37.77;100668.13;4924419;28;19915;-94
2022/04/26 13:38:35;;;;;;;;;;;;;;;19.64;38.46;100674.06;5673690;23;19913;-91
2022/04/26 13:50:19;;;;;;;;;;;;;;;19.61;39.62;100665.28;4954736;29;19934;-94
2022/04/26 13:52:54;;;;;;;;;;;;;;;19.37;40.09;100663.34;4939189;29;19922;-94
2022/04/26 13:55:26;;;;;;;;;;;;;;;19.39;40.10;100674.88;4938638;29;19930;-91
2022/04/26 13:57:58;;;;;;;;;;;;;;;19.54;39.74;100663.66;4953386;28;20299;-92
2022/04/26 14:00:34;;;;;;;;;;;;;;;19.53;39.68;100673.72;4928021;29;20336;-87
2022/04/26 14:03:06;;;;;;;;;;;;;;;19.60;39.73;100677.25;4954838;28;20079;-86
2022/04/26 14:05:35;;;;;;;;;;;;;;;19.39;40.24;100677.59;4943458;28;19989;-89
2022/04/26 14:08:01;;;;;;;;;;;;;;;19.61;39.89;100672.63;4937935;28;19926;-83
2022/04/26 14:10:33;;;;;;;;;;;;;;;19.38;40.98;100673.19;4920812;29;19918;-86
2022/04/26 14:12:59;;;;;;;;;;;;;;;19.51;40.78;100672.28;4952155;28;20012;-83
2022/04/26 14:23:47;;;;;;;;;;;;;;;18.87;42.07;100676.78;4937324;29;19930;-84
2022/04/26 14:26:13;;;;;;;;;;;;;;;18.84;42.45;100674.50;4940844;28;19925;-82
2022/04/26 14:28:44;;;;;;;;;;;;;;;19.06;42.03;100684.06;4921815;29;19918;-83
2022/04/26 14:31:09;;;;;;;;;;;;;;;19.03;42.38;100684.47;4909121;28;19922;-82
2022/04/26 14:33:34;;;;;;;;;;;;;;;18.68;42.94;100679.34;4922515;29;19922;-84
2022/04/26 14:36:02;;;;;;;;;;;;;;;19.01;42.49;100686.59;4946082;28;20378;-84
2022/04/26 14:38:27;;;;;;;;;;;;;;;19.09;41.65;100686.34;4947781;28;20044;-81
2022/04/26 14:40:54;;;;;;;;;;;;;;;19.10;41.91;100679.81;4937170;28;19942;-82
2022/04/26 14:43:20;;;;;;;;;;;;;;;18.93;42.03;100684.09;4934571;29;19926;-82
2022/04/26 14:45:53;;;;;;;;;;;;;;;18.92;42.17;100680.53;4951773;29;19919;-82
2022/04/26 14:48:19;;;;;;;;;;;;;;;18.62;42.77;100682.91;4952053;28;19989;-82
2022/04/26 14:50:44;;;;;;;;;;;;;;;18.56;43.18;100683.75;4945898;28;20013;-81
2022/04/26 14:53:10;;;;;;;;;;;;;;;18.48;43.52;100681.28;4939443;29;19918;-83
2022/04/26 14:55:36;;;;;;;;;;;;;;;18.53;43.28;100685.03;4941767;28;20017;-82
2022/04/26 14:58:02;;;;;;;;;;;;;;;18.28;43.54;100690.28;4935296;29;19923;-85
2022/04/26 15:00:28;;;;;;;;;;;;;;;18.29;43.81;100688.44;4938851;29;19919;-80
2022/04/26 15:02:53;;;;;;;;;;;;;;;18.23;43.82;100683.81;4953031;28;20053;-81
2022/04/26 15:05:19;;;;;;;;;;;;;;;18.21;43.98;100685.91;4934772;29;20394;-84
2022/04/26 15:10:29;;;;;;;;;;;;;;;18.31;43.99;100683.63;4941095;28;19942;-83
2022/04/26 15:18:35;;;;;;;;;;;;;;;18.28;44.10;100684.84;4940816;29;20385;-85
2022/04/26 15:21:02;;;;;;;;;;;;;;;18.24;44.06;100686.34;4924995;29;20365;-88
2022/04/26 15:23:28;;;;;;;;;;;;;;;18.27;44.07;100687.78;4923876;29;19923;-83
2022/04/26 15:25:55;;;;;;;;;;;;;;;18.49;44.02;100691.94;4922001;29;19922;-83
2022/04/26 15:28:22;;;;;;;;;;;;;;;18.45;44.00;100689.84;4934465;29;19988;-84
2022/04/26 15:30:48;;;;;;;;;;;;;;;18.52;43.54;100680.63;4931255;29;20294;-84
2022/04/26 15:33:14;;;;;;;;;;;;;;;17.90;45.22;100690.09;4921092;28;19926;-84
2022/04/26 15:35:42;;;;;;;;;;;;;;;18.34;44.40;100685.91;4946327;28;20374;-83
2022/04/26 15:38:12;;;;;;;;;;;;;;;18.33;44.25;100689.66;4943490;28;19923;-81
2022/04/26 15:40:50;;;;;;;;;;;;;;;18.21;44.50;100685.91;4942216;28;20367;-85
2022/04/26 15:43:17;;;;;;;;;;;;;;;18.20;45.31;100686.97;4927324;29;20370;-83
2022/04/26 15:45:43;;;;;;;;;;;;;;;18.32;45.48;100688.81;4947510;28;19919;-85
2022/04/26 15:48:08;;;;;;;;;;;;;;;18.30;44.90;100688.19;4939258;29;19918;-84
2022/04/26 15:50:34;;;;;;;;;;;;;;;18.32;45.15;100686.09;4938414;29;19956;-85
2022/04/26 15:52:59;;;;;;;;;;;;;;;18.10;45.32;100684.69;4942326;29;19930;-86
2022/04/26 15:55:25;;;;;;;;;;;;;;;17.89;45.79;100686.56;4925969;29;19929;-85
2022/04/26 15:57:52;;;;;;;;;;;;;;;17.67;46.38;100685.03;4917350;29;20005;-84
2022/04/26 16:00:18;;;;;;;;;;;;;;;17.62;46.58;100687.53;4948664;28;19918;-85
2022/04/26 16:02:45;;;;;;;;;;;;;;;17.65;46.59;100687.09;4950342;29;19925;-86
2022/04/26 16:05:20;;;;;;;;;;;;;;;17.62;46.84;100693.78;4938924;28;19927;-83
2022/04/26 16:07:46;;;;;;;;;;;;;;;17.42;47.20;100680.19;4953724;28;19920;-83
2022/04/26 16:21:22;;;;;;;;;;;;;;;16.92;48.95;100703.19;4937113;29;20379;-87
2022/04/26 16:23:48;;;;;;;;;;;;;;;16.87;49.23;100696.47;4928859;29;19923;-84
2022/04/26 16:26:15;;;;;;;;;;;;;;;16.82;49.34;100695.41;4932416;29;19914;-88
2022/04/26 16:28:42;;;;;;;;;;;;;;;16.67;49.81;100700.94;4924140;29;19981;-85
2022/04/26 16:31:07;;;;;;;;;;;;;;;16.73;49.35;100700.13;4936588;29;20296;-85
2022/04/26 16:33:34;;;;;;;;;;;;;;;16.73;49.62;100704.72;4937844;29;19954;-84
2022/04/26 16:36:00;;;;;;;;;;;;;;;16.69;49.61;100715.13;4939699;28;19941;-84
2022/04/26 16:38:27;;;;;;;;;;;;;;;16.59;49.74;100710.06;4942053;28;21297;-88
2022/04/26 16:40:55;;;;;;;;;;;;;;;16.59;49.67;100704.63;4935228;29;19922;-86
2022/04/26 16:43:20;;;;;;;;;;;;;;;16.48;49.97;100712.50;4929974;29;19918;-85
2022/04/26 16:45:46;;;;;;;;;;;;;;;16.44;50.20;100717.50;4933162;29;19977;-84
2022/04/26 16:48:14;;;;;;;;;;;;;;;16.32;50.60;100719.06;4930438;29;20372;-84
2022/04/26 16:50:40;;;;;;;;;;;;;;;16.30;50.51;100721.16;4927071;29;19918;-85
2022/04/26 16:53:05;;;;;;;;;;;;;;;16.15;50.91;100730.19;4916199;29;20346;-86
2022/04/26 16:55:31;;;;;;;;;;;;;;;16.21;51.04;100729.41;4939627;28;19914;-86
2022/04/26 16:57:57;;;;;;;;;;;;;;;16.14;50.73;100731.25;4932607;29;19977;-84
2022/04/26 17:00:30;;;;;;;;;;;;;;;16.16;50.84;100736.47;4941976;29;19926;-87
2022/04/26 17:02:56;;;;;;;;;;;;;;;16.07;51.16;100743.91;4949768;28;19915;-86
2022/04/26 17:05:22;;;;;;;;;;;;;;;16.08;51.20;100744.75;4944036;28;20343;-87
2022/04/26 17:07:57;;;;;;;;;;;;;;;16.04;51.07;100738.88;4951415;28;20248;-85
2022/04/26 17:10:24;;;;;;;;;;;;;;;16.06;50.99;100744.09;4930015;29;19919;-84
2022/04/26 17:12:52;;;;;;;;;;;;;;;16.02;51.20;100749.91;4916934;29;20389;-86
2022/04/26 17:15:18;;;;;;;;;;;;;;;15.97;51.54;100751.53;4944126;28;20375;-86
2022/04/26 17:17:58;;;;;;;;;;;;;;;15.89;52.03;100751.66;4915974;29;19915;-85
2022/04/26 17:20:23;;;;;;;;;;;;;;;15.79;52.15;100750.09;4941660;28;19914;-85
2022/04/26 17:22:50;;;;;;;;;;;;;;;15.63;52.39;100763.88;4934670;28;20029;-84
2022/04/26 17:25:16;;;;;;;;;;;;;;;15.68;52.25;100766.84;4943474;28;19915;-86
2022/04/26 17:27:48;;;;;;;;;;;;;;;15.67;52.82;100769.75;4932480;29;19911;-84
2022/04/26 17:30:15;;;;;;;;;;;;;;;15.67;52.86;100778.72;4946305;29;19915;-86
2022/04/26 17:32:45;;;;;;;;;;;;;;;15.72;52.98;100779.00;4932083;29;19941;-86
2022/04/26 17:35:13;;;;;;;;;;;;;;;15.67;52.83;100786.03;4935339;29;19914;-86